Time;durP1;ratioP1;P1;durP2;ratioP2;P2;SDS_P1;SDS_P2;PMS_P1;PMS_P2;Temp;Humidity;BMP_temperature;BMP_pressure;BME280_temperature;BME280_humidity;BME280_pressure;Samples;Min_cycle;Max_cycle;Signal;HPM_P1;HPM_P2
2023/05/28 00:00:42;;;;;;;;;;;;;;;;;;5021467;28;19924;-72
2023/05/28 00:03:09;;;;;;;;;;;;;;;;;;5021233;28;20100;-72
2023/05/28 00:05:35;;;;;;;;;;;;;;;;;;5007614;28;20000;-72
2023/05/28 00:08:03;;;;;;;;;;;;;;;;;;4992270;28;20282;-72
2023/05/28 00:10:29;;;;;;;;;;;;;;;;;;5018863;28;19923;-72
2023/05/28 00:12:55;;;;;;;;;;;;;;;;;;5006423;28;20207;-72
2023/05/28 00:15:21;;;;;;;;;;;;;;;;;;5004569;28;19917;-72
2023/05/28 00:17:52;;;;;;;;;;;;;;;;;;5024811;28;19925;-72
2023/05/28 00:20:18;;;;;;;;;;;;;;;;;;5023258;28;19996;-72
2023/05/28 00:22:44;;;;;;;;;;;;;;;;;;5024031;28;20384;-71
2023/05/28 00:25:11;;;;;;;;;;;;;;;;;;5007560;28;19917;-71
2023/05/28 00:27:37;;;;;;;;;;;;;;;;;;4991713;28;19920;-72
2023/05/28 00:30:03;;;;;;;;;;;;;;;;;;5023051;28;20378;-71
2023/05/28 00:32:29;;;;;;;;;;;;;;;;;;5006678;28;19963;-72
2023/05/28 00:34:55;;;;;;;;;;;;;;;;;;5005248;28;20298;-72
2023/05/28 00:37:22;;;;;;;;;;;;;;;;;;4991980;28;19994;-72
2023/05/28 00:39:48;;;;;;;;;;;;;;;;;;5005624;28;19972;-71
2023/05/28 00:42:14;;;;;;;;;;;;;;;;;;5008596;28;20368;-71
2023/05/28 00:44:41;;;;;;;;;;;;;;;;;;5024235;28;19972;-72
2023/05/28 00:47:07;;;;;;;;;;;;;;;;;;5024683;28;19944;-72
2023/05/28 00:49:33;;;;;;;;;;;;;;;;;;4995576;28;20378;-72
2023/05/28 00:51:59;;;;;;;;;;;;;;;;;;5022385;28;20024;-72
2023/05/28 00:54:25;;;;;;;;;;;;;;;;;;5006990;28;19939;-72
2023/05/28 00:56:52;;;;;;;;;;;;;;;;;;5024450;28;20012;-72
2023/05/28 00:59:18;;;;;;;;;;;;;;;;;;5023470;28;19913;-71
2023/05/28 01:01:44;;;;;;;;;;;;;;;;;;5008665;28;20428;-71
2023/05/28 01:04:11;;;;;;;;;;;;;;;;;;5022469;28;19925;-72
2023/05/28 01:06:38;;;;;;;;;;;;;;;;;;5023517;28;20052;-71
2023/05/28 01:09:04;;;;;;;;;;;;;;;;;;5003005;28;19921;-72
2023/05/28 01:11:30;;;;;;;;;;;;;;;;;;5009491;28;19970;-72
2023/05/28 01:13:56;;;;;;;;;;;;;;;;;;4991657;28;19964;-71
2023/05/28 01:16:22;;;;;;;;;;;;;;;;;;5023091;28;19917;-72
2023/05/28 01:18:48;;;;;;;;;;;;;;;;;;5025148;28;19994;-71
2023/05/28 01:21:15;;;;;;;;;;;;;;;;;;5013053;28;19913;-71
2023/05/28 01:23:43;;;;;;;;;;;;;;;;;;5014226;28;20469;-71
2023/05/28 01:26:12;;;;;;;;;;;;;;;;;;5025367;28;20143;-71
2023/05/28 01:28:44;;;;;;;;;;;;;;;;;;5023826;28;20001;-71
2023/05/28 01:31:10;;;;;;;;;;;;;;;;;;5009767;28;19921;-71
2023/05/28 01:33:36;;;;;;;;;;;;;;;;;;5008012;28;19920;-71
2023/05/28 01:36:02;;;;;;;;;;;;;;;;;;5002938;28;20447;-72
2023/05/28 01:38:28;;;;;;;;;;;;;;;;;;5005415;28;19914;-72
2023/05/28 01:40:54;;;;;;;;;;;;;;;;;;5024935;28;19913;-71
2023/05/28 01:43:20;;;;;;;;;;;;;;;;;;5012499;28;19919;-71
2023/05/28 01:45:46;;;;;;;;;;;;;;;;;;5013223;28;21270;-71
2023/05/28 01:48:12;;;;;;;;;;;;;;;;;;5010033;28;19913;-71
2023/05/28 01:50:40;;;;;;;;;;;;;;;;;;4993044;28;19942;-71
2023/05/28 01:53:06;;;;;;;;;;;;;;;;;;5011668;28;19913;-71
2023/05/28 01:55:32;;;;;;;;;;;;;;;;;;5000765;28;19937;-71
2023/05/28 01:57:59;;;;;;;;;;;;;;;;;;5024695;28;19945;-71
2023/05/28 02:00:25;;;;;;;;;;;;;;;;;;5032199;28;19959;-71
2023/05/28 02:02:53;;;;;;;;;;;;;;;;;;5006436;28;19945;-71
2023/05/28 02:05:20;;;;;;;;;;;;;;;;;;5022885;28;20100;-71
2023/05/28 02:07:47;;;;;;;;;;;;;;;;;;5015173;28;19952;-72
2023/05/28 02:10:13;;;;;;;;;;;;;;;;;;5006975;28;20343;-71
2023/05/28 02:12:39;;;;;;;;;;;;;;;;;;5007187;28;19924;-71
2023/05/28 02:15:06;;;;;;;;;;;;;;;;;;5008035;28;19913;-71
2023/05/28 02:17:33;;;;;;;;;;;;;;;;;;5019105;28;20008;-71
2023/05/28 02:19:59;;;;;;;;;;;;;;;;;;5005201;28;19925;-71
2023/05/28 02:22:27;;;;;;;;;;;;;;;;;;5008793;28;20374;-71
2023/05/28 02:24:54;;;;;;;;;;;;;;;;;;5020706;28;19921;-71
2023/05/28 02:27:20;;;;;;;;;;;;;;;;;;5008822;28;19917;-71
2023/05/28 02:29:47;;;;;;;;;;;;;;;;;;5007785;28;19921;-71
2023/05/28 02:32:13;;;;;;;;;;;;;;;;;;4994037;28;19913;-71
2023/05/28 02:34:41;;;;;;;;;;;;;;;;;;5024886;28;19925;-71
2023/05/28 02:37:08;;;;;;;;;;;;;;;;;;5010170;28;20250;-71
2023/05/28 02:39:34;;;;;;;;;;;;;;;;;;5006978;28;19913;-71
2023/05/28 02:42:00;;;;;;;;;;;;;;;;;;5008014;28;19913;-71
2023/05/28 02:44:27;;;;;;;;;;;;;;;;;;4997508;28;20238;-72
2023/05/28 02:46:53;;;;;;;;;;;;;;;;;;5010248;28;19992;-72
2023/05/28 02:49:19;;;;;;;;;;;;;;;;;;5020917;28;19917;-72
2023/05/28 02:51:46;;;;;;;;;;;;;;;;;;5008983;28;20279;-71
2023/05/28 02:54:19;;;;;;;;;;;;;;;;;;5024904;28;20248;-72
2023/05/28 02:56:46;;;;;;;;;;;;;;;;;;5024675;28;20075;-71
2023/05/28 02:59:12;;;;;;;;;;;;;;;;;;5007915;28;20441;-70
2023/05/28 03:01:40;;;;;;;;;;;;;;;;;;5006777;28;19922;-71
2023/05/28 03:04:06;;;;;;;;;;;;;;;;;;5008207;28;20003;-71
2023/05/28 03:06:33;;;;;;;;;;;;;;;;;;5003037;28;19920;-71
2023/05/28 03:09:00;;;;;;;;;;;;;;;;;;5006220;28;20285;-71
2023/05/28 03:11:26;;;;;;;;;;;;;;;;;;5013748;28;19917;-72
2023/05/28 03:13:52;;;;;;;;;;;;;;;;;;5022577;28;19963;-71
2023/05/28 03:16:18;;;;;;;;;;;;;;;;;;5007155;28;19963;-71
2023/05/28 03:18:44;;;;;;;;;;;;;;;;;;4994677;28;19913;-72
2023/05/28 03:21:11;;;;;;;;;;;;;;;;;;4993498;28;20394;-71
2023/05/28 03:23:37;;;;;;;;;;;;;;;;;;5021879;28;19913;-72
2023/05/28 03:26:32;;;;;;;;;;;;;;;;;;5014191;28;20374;-72
2023/05/28 03:28:58;;;;;;;;;;;;;;;;;;4999455;28;19928;-72
2023/05/28 03:31:45;;;;;;;;;;;;;;;;;;5022889;28;19913;-71
2023/05/28 03:34:12;;;;;;;;;;;;;;;;;;5010719;28;19983;-72
2023/05/28 03:36:42;;;;;;;;;;;;;;;;;;5008272;28;19983;-72
2023/05/28 03:39:09;;;;;;;;;;;;;;;;;;5023227;28;19921;-72
2023/05/28 03:41:35;;;;;;;;;;;;;;;;;;5022074;28;20007;-72
2023/05/28 03:44:01;;;;;;;;;;;;;;;;;;4996894;28;19928;-72
2023/05/28 03:46:27;;;;;;;;;;;;;;;;;;5007832;28;20295;-72
2023/05/28 03:48:54;;;;;;;;;;;;;;;;;;5007274;28;20048;-72
2023/05/28 03:51:21;;;;;;;;;;;;;;;;;;4993274;28;20403;-72
2023/05/28 03:53:47;;;;;;;;;;;;;;;;;;5007954;28;19919;-73
2023/05/28 03:56:13;;;;;;;;;;;;;;;;;;5023696;28;20000;-73
2023/05/28 03:58:39;;;;;;;;;;;;;;;;;;5024541;28;19964;-72
2023/05/28 04:01:05;;;;;;;;;;;;;;;;;;5007035;28;20374;-72
2023/05/28 04:03:31;;;;;;;;;;;;;;;;;;5026900;28;19996;-72
2023/05/28 04:05:57;;;;;;;;;;;;;;;;;;5008318;28;19917;-72
2023/05/28 04:08:24;;;;;;;;;;;;;;;;;;4992640;28;19975;-72
2023/05/28 04:10:50;;;;;;;;;;;;;;;;;;5027484;28;20015;-72
2023/05/28 04:13:17;;;;;;;;;;;;;;;;;;5022965;28;20354;-72
2023/05/28 04:15:43;;;;;;;;;;;;;;;;;;5008408;28;19920;-72
2023/05/28 04:18:09;;;;;;;;;;;;;;;;;;5022554;28;19921;-72
2023/05/28 04:20:35;;;;;;;;;;;;;;;;;;5010833;28;19943;-72
2023/05/28 04:23:01;;;;;;;;;;;;;;;;;;5004659;28;19917;-72
2023/05/28 04:25:29;;;;;;;;;;;;;;;;;;4999289;28;20294;-71
2023/05/28 04:27:55;;;;;;;;;;;;;;;;;;4980902;28;19918;-71
2023/05/28 04:30:22;;;;;;;;;;;;;;;;;;4979329;28;19985;-71
2023/05/28 04:32:51;;;;;;;;;;;;;;;;;;4977125;28;19968;-71
2023/05/28 04:35:17;;;;;;;;;;;;;;;;;;4963939;28;19914;-72
2023/05/28 04:37:44;;;;;;;;;;;;;;;;;;4966947;28;19918;-72
2023/05/28 04:40:13;;;;;;;;;;;;;;;;;;4972775;28;19910;-72
2023/05/28 04:42:40;;;;;;;;;;;;;;;;;;4949070;28;19918;-72
2023/05/28 04:45:07;;;;;;;;;;;;;;;;;;4964408;28;20530;-72
2023/05/28 04:47:34;;;;;;;;;;;;;;;;;;4962047;28;19924;-72
2023/05/28 04:50:00;;;;;;;;;;;;;;;;;;4981019;28;19922;-70
2023/05/28 04:52:26;;;;;;;;;;;;;;;;;;4981514;28;20016;-71
2023/05/28 04:54:52;;;;;;;;;;;;;;;;;;4967391;28;19921;-71
2023/05/28 04:57:18;;;;;;;;;;;;;;;;;;4985871;28;19933;-72
2023/05/28 04:59:44;;;;;;;;;;;;;;;;;;4986541;28;19940;-72
2023/05/28 05:02:12;;;;;;;;;;;;;;;;;;4989827;28;19922;-71
2023/05/28 05:04:38;;;;;;;;;;;;;;;;;;4977324;28;19917;-71
2023/05/28 05:07:04;;;;;;;;;;;;;;;;;;5004384;28;20051;-72
2023/05/28 05:09:30;;;;;;;;;;;;;;;;;;5002764;28;19972;-72
2023/05/28 05:11:56;;;;;;;;;;;;;;;;;;4992567;28;19914;-73
2023/05/28 05:14:22;;;;;;;;;;;;;;;;;;4990066;28;20325;-71
2023/05/28 05:16:49;;;;;;;;;;;;;;;;;;5000909;28;19921;-71
2023/05/28 05:19:15;;;;;;;;;;;;;;;;;;5004202;28;19925;-72
2023/05/28 05:21:41;;;;;;;;;;;;;;;;;;5004244;28;19913;-71
2023/05/28 05:24:07;;;;;;;;;;;;;;;;;;5002708;28;20639;-71
2023/05/28 05:26:33;;;;;;;;;;;;;;;;;;4989224;28;19913;-71
2023/05/28 05:28:59;;;;;;;;;;;;;;;;;;5006726;28;20370;-72
2023/05/28 05:31:25;;;;;;;;;;;;;;;;;;5022160;28;19924;-72
2023/05/28 05:33:51;;;;;;;;;;;;;;;;;;5006367;28;20307;-72
2023/05/28 05:36:33;;;;;;;;;;;;;;;;;;5011670;28;19909;-72
2023/05/28 05:39:14;;;;;;;;;;;;;;;;;;4994227;28;19923;-72
2023/05/28 05:41:49;;;;;;;;;;;;;;;;;;5026681;28;19917;-72
2023/05/28 05:44:26;;;;;;;;;;;;;;;;;;5020134;28;20650;-72
2023/05/28 05:46:52;;;;;;;;;;;;;;;;;;5026592;28;19917;-72
2023/05/28 05:49:19;;;;;;;;;;;;;;;;;;5015274;28;19925;-72
2023/05/28 05:51:45;;;;;;;;;;;;;;;;;;5009704;28;19982;-72
2023/05/28 05:54:11;;;;;;;;;;;;;;;;;;5025486;28;19921;-72
2023/05/28 05:56:37;;;;;;;;;;;;;;;;;;5007277;28;20011;-72
2023/05/28 05:59:03;;;;;;;;;;;;;;;;;;5005119;28;19917;-72
2023/05/28 06:01:30;;;;;;;;;;;;;;;;;;5007732;28;20004;-72
2023/05/28 06:03:57;;;;;;;;;;;;;;;;;;5011514;28;19996;-72
2023/05/28 06:06:38;;;;;;;;;;;;;;;;;;5016266;28;20180;-72
2023/05/28 06:09:32;;;;;;;;;;;;;;;;;;5024353;28;19925;-72
2023/05/28 06:12:04;;;;;;;;;;;;;;;;;;5022740;28;20045;-72
2023/05/28 06:14:30;;;;;;;;;;;;;;;;;;4998738;28;19951;-72
2023/05/28 06:16:56;;;;;;;;;;;;;;;;;;5020702;28;20347;-72
2023/05/28 06:19:22;;;;;;;;;;;;;;;;;;5022208;28;19921;-72
2023/05/28 06:21:48;;;;;;;;;;;;;;;;;;5011215;28;19965;-71
2023/05/28 06:24:15;;;;;;;;;;;;;;;;;;5006944;28;19990;-71
2023/05/28 06:26:44;;;;;;;;;;;;;;;;;;5021605;28;19971;-71
2023/05/28 06:29:10;;;;;;;;;;;;;;;;;;4992824;28;20015;-71
2023/05/28 06:31:36;;;;;;;;;;;;;;;;;;5020825;28;20305;-72
2023/05/28 06:34:03;;;;;;;;;;;;;;;;;;5006102;28;19913;-71
2023/05/28 06:36:29;;;;;;;;;;;;;;;;;;4991846;28;19921;-72
2023/05/28 06:38:55;;;;;;;;;;;;;;;;;;5000850;28;19921;-73
2023/05/28 06:41:23;;;;;;;;;;;;;;;;;;4992987;28;20354;-73
2023/05/28 06:43:50;;;;;;;;;;;;;;;;;;5006787;28;19937;-73
2023/05/28 06:46:22;;;;;;;;;;;;;;;;;;5026796;28;19996;-72
2023/05/28 06:48:48;;;;;;;;;;;;;;;;;;5008150;28;20041;-73
2023/05/28 06:51:14;;;;;;;;;;;;;;;;;;5024404;28;19921;-72
2023/05/28 06:53:40;;;;;;;;;;;;;;;;;;5012500;28;19920;-73
2023/05/28 06:56:06;;;;;;;;;;;;;;;;;;5005946;28;20649;-73
2023/05/28 06:58:45;;;;;;;;;;;;;;;;;;5025243;28;20369;-74
2023/05/28 07:01:37;;;;;;;;;;;;;;;;;;5022997;28;19996;-72
2023/05/28 07:04:26;;;;;;;;;;;;;;;;;;4993787;28;19913;-72
2023/05/28 07:07:00;;;;;;;;;;;;;;;;;;5003954;28;19913;-72
2023/05/28 07:09:29;;;;;;;;;;;;;;;;;;5012764;28;19948;-72
2023/05/28 07:11:56;;;;;;;;;;;;;;;;;;5008195;28;19921;-72
2023/05/28 07:14:22;;;;;;;;;;;;;;;;;;5022731;28;19917;-71
2023/05/28 07:16:48;;;;;;;;;;;;;;;;;;5006484;28;20051;-72
2023/05/28 07:19:14;;;;;;;;;;;;;;;;;;5025689;28;20523;-72
2023/05/28 07:21:41;;;;;;;;;;;;;;;;;;5010544;28;19914;-71
2023/05/28 07:24:07;;;;;;;;;;;;;;;;;;5002612;28;19924;-71
2023/05/28 07:26:34;;;;;;;;;;;;;;;;;;5005839;28;20393;-71
2023/05/28 07:29:00;;;;;;;;;;;;;;;;;;5022781;28;20382;-72
2023/05/28 07:31:28;;;;;;;;;;;;;;;;;;5026660;28;19918;-72
2023/05/28 07:33:54;;;;;;;;;;;;;;;;;;5020576;28;19913;-71
2023/05/28 07:36:20;;;;;;;;;;;;;;;;;;5008890;28;20297;-71
2023/05/28 07:38:46;;;;;;;;;;;;;;;;;;5007247;28;19917;-71
2023/05/28 07:41:13;;;;;;;;;;;;;;;;;;5008095;28;19919;-71
2023/05/28 07:43:55;;;;;;;;;;;;;;;;;;5008536;28;20374;-71
2023/05/28 07:46:25;;;;;;;;;;;;;;;;;;5003529;28;19917;-70
2023/05/28 07:49:04;;;;;;;;;;;;;;;;;;5008077;28;19917;-72
2023/05/28 07:51:40;;;;;;;;;;;;;;;;;;5005315;28;19917;-72
2023/05/28 07:54:17;;;;;;;;;;;;;;;;;;4999326;28;19961;-72
2023/05/28 07:56:45;;;;;;;;;;;;;;;;;;4992805;28;19928;-72
2023/05/28 07:59:18;;;;;;;;;;;;;;;;;;5013244;28;20366;-72
2023/05/28 08:01:45;;;;;;;;;;;;;;;;;;5006472;28;20019;-71
2023/05/28 08:04:12;;;;;;;;;;;;;;;;;;5008697;28;20430;-71
2023/05/28 08:06:39;;;;;;;;;;;;;;;;;;5010382;28;19999;-71
2023/05/28 08:09:08;;;;;;;;;;;;;;;;;;5009836;28;19924;-71
2023/05/28 08:11:34;;;;;;;;;;;;;;;;;;5005857;28;19928;-71
2023/05/28 08:14:00;;;;;;;;;;;;;;;;;;5008268;28;20412;-71
2023/05/28 08:16:26;;;;;;;;;;;;;;;;;;5008205;28;19935;-70
2023/05/28 08:19:13;;;;;;;;;;;;;;;;;;5013223;28;19919;-71
2023/05/28 08:21:39;;;;;;;;;;;;;;;;;;5001896;28;19917;-72
2023/05/28 08:24:06;;;;;;;;;;;;;;;;;;4995209;28;19924;-71
2023/05/28 08:26:32;;;;;;;;;;;;;;;;;;4991673;28;19913;-73
2023/05/28 08:28:58;;;;;;;;;;;;;;;;;;5007534;28;20294;-73
2023/05/28 08:31:25;;;;;;;;;;;;;;;;;;5013286;28;19927;-73
2023/05/28 08:34:14;;;;;;;;;;;;;;;;;;5028938;28;19921;-74
2023/05/28 08:36:41;;;;;;;;;;;;;;;;;;5026073;28;19921;-73
2023/05/28 08:39:12;;;;;;;;;;;;;;;;;;5005751;28;19913;-73
2023/05/28 08:41:40;;;;;;;;;;;;;;;;;;4996931;28;19913;-72
2023/05/28 08:44:06;;;;;;;;;;;;;;;;;;5012686;28;19913;-73
2023/05/28 08:46:32;;;;;;;;;;;;;;;;;;5009629;28;20004;-74
2023/05/28 08:49:17;;;;;;;;;;;;;;;;;;5029662;28;20002;-72
2023/05/28 08:51:43;;;;;;;;;;;;;;;;;;5011557;28;19920;-72
2023/05/28 08:54:10;;;;;;;;;;;;;;;;;;5016104;28;19921;-72
2023/05/28 08:56:36;;;;;;;;;;;;;;;;;;5027916;28;19999;-73
2023/05/28 08:59:03;;;;;;;;;;;;;;;;;;5011784;28;20048;-73
2023/05/28 09:01:29;;;;;;;;;;;;;;;;;;5010035;28;19913;-72
2023/05/28 09:04:02;;;;;;;;;;;;;;;;;;5011796;28;20305;-72
2023/05/28 09:06:35;;;;;;;;;;;;;;;;;;5013919;28;19925;-72
2023/05/28 09:09:02;;;;;;;;;;;;;;;;;;5005943;28;20425;-72
2023/05/28 09:11:54;;;;;;;;;;;;;;;;;;5022752;28;19924;-71
2023/05/28 09:14:20;;;;;;;;;;;;;;;;;;5010726;28;19924;-71
2023/05/28 09:16:48;;;;;;;;;;;;;;;;;;5029315;28;19925;-73
2023/05/28 09:19:21;;;;;;;;;;;;;;;;;;5010029;28;19967;-71
2023/05/28 09:21:48;;;;;;;;;;;;;;;;;;5011839;28;19919;-72
2023/05/28 09:24:16;;;;;;;;;;;;;;;;;;5004698;28;20297;-73
2023/05/28 09:27:01;;;;;;;;;;;;;;;;;;5026623;28;19920;-72
2023/05/28 09:29:31;;;;;;;;;;;;;;;;;;5011040;28;20301;-72
2023/05/28 09:31:57;;;;;;;;;;;;;;;;;;5001105;28;19934;-72
2023/05/28 09:34:23;;;;;;;;;;;;;;;;;;5026554;28;19917;-73
2023/05/28 09:36:50;;;;;;;;;;;;;;;;;;5028372;28;19917;-72
2023/05/28 09:39:16;;;;;;;;;;;;;;;;;;5008662;28;19924;-72
2023/05/28 09:41:44;;;;;;;;;;;;;;;;;;5027605;28;19921;-72
2023/05/28 09:44:10;;;;;;;;;;;;;;;;;;5026694;28;20054;-72
2023/05/28 09:46:36;;;;;;;;;;;;;;;;;;5008890;28;20394;-72
2023/05/28 09:49:02;;;;;;;;;;;;;;;;;;5027533;28;19964;-73
2023/05/28 09:51:29;;;;;;;;;;;;;;;;;;5008408;28;20394;-73
2023/05/28 09:53:55;;;;;;;;;;;;;;;;;;5009247;28;19992;-73
2023/05/28 09:56:21;;;;;;;;;;;;;;;;;;5028087;28;19913;-73
2023/05/28 09:58:49;;;;;;;;;;;;;;;;;;5012154;28;20043;-72
2023/05/28 10:01:15;;;;;;;;;;;;;;;;;;5028152;28;19936;-72
2023/05/28 10:03:42;;;;;;;;;;;;;;;;;;5010189;28;20013;-72
2023/05/28 10:06:08;;;;;;;;;;;;;;;;;;5032418;28;20006;-72
2023/05/28 10:08:37;;;;;;;;;;;;;;;;;;5011945;28;19963;-71
2023/05/28 10:11:03;;;;;;;;;;;;;;;;;;5026347;28;19928;-71
2023/05/28 10:13:29;;;;;;;;;;;;;;;;;;5027122;28;19913;-73
2023/05/28 10:15:55;;;;;;;;;;;;;;;;;;5024505;28;19922;-71
2023/05/28 10:18:21;;;;;;;;;;;;;;;;;;5013628;28;20013;-71
2023/05/28 10:20:47;;;;;;;;;;;;;;;;;;5010519;28;19975;-71
2023/05/28 10:23:13;;;;;;;;;;;;;;;;;;5028525;28;20351;-72
2023/05/28 10:25:39;;;;;;;;;;;;;;;;;;5009764;28;20491;-71
2023/05/28 10:28:06;;;;;;;;;;;;;;;;;;5027520;28;19921;-71
2023/05/28 10:30:35;;;;;;;;;;;;;;;;;;5026504;28;19956;-73
2023/05/28 10:33:01;;;;;;;;;;;;;;;;;;5004739;28;19913;-72
2023/05/28 10:35:27;;;;;;;;;;;;;;;;;;5010114;28;19913;-72
2023/05/28 10:37:53;;;;;;;;;;;;;;;;;;5025982;28;19913;-72
2023/05/28 10:40:19;;;;;;;;;;;;;;;;;;5010466;28;20427;-71
2023/05/28 10:42:45;;;;;;;;;;;;;;;;;;5018750;28;19928;-71
2023/05/28 10:45:11;;;;;;;;;;;;;;;;;;5010105;28;19920;-71
2023/05/28 10:47:37;;;;;;;;;;;;;;;;;;5011350;28;20043;-72
2023/05/28 10:50:03;;;;;;;;;;;;;;;;;;5027870;28;19924;-72
2023/05/28 10:52:30;;;;;;;;;;;;;;;;;;4994220;28;19921;-72
2023/05/28 10:54:56;;;;;;;;;;;;;;;;;;5024316;28;19917;-72
2023/05/28 10:57:22;;;;;;;;;;;;;;;;;;5023085;28;19974;-71
2023/05/28 10:59:48;;;;;;;;;;;;;;;;;;5026060;28;19936;-72
2023/05/28 11:02:14;;;;;;;;;;;;;;;;;;5009624;28;19967;-72
2023/05/28 11:04:41;;;;;;;;;;;;;;;;;;5026047;28;19917;-73
2023/05/28 11:07:07;;;;;;;;;;;;;;;;;;5023288;28;20007;-72
2023/05/28 11:09:33;;;;;;;;;;;;;;;;;;5027273;28;19932;-73
2023/05/28 11:12:02;;;;;;;;;;;;;;;;;;5025423;28;19921;-72
2023/05/28 11:14:29;;;;;;;;;;;;;;;;;;5011639;28;19913;-72
2023/05/28 11:16:55;;;;;;;;;;;;;;;;;;5023106;28;19934;-72
2023/05/28 11:19:21;;;;;;;;;;;;;;;;;;5008237;28;20560;-72
2023/05/28 11:21:49;;;;;;;;;;;;;;;;;;5008736;28;19913;-72
2023/05/28 11:24:15;;;;;;;;;;;;;;;;;;5025307;28;19913;-73
2023/05/28 11:26:41;;;;;;;;;;;;;;;;;;5007110;28;19917;-73
2023/05/28 11:29:07;;;;;;;;;;;;;;;;;;5027818;28;19971;-73
2023/05/28 11:31:33;;;;;;;;;;;;;;;;;;5007776;28;19921;-72
2023/05/28 11:33:59;;;;;;;;;;;;;;;;;;5027244;28;20392;-72
2023/05/28 11:36:25;;;;;;;;;;;;;;;;;;5025458;28;19917;-72
2023/05/28 11:38:51;;;;;;;;;;;;;;;;;;5027564;28;19971;-73
2023/05/28 11:41:17;;;;;;;;;;;;;;;;;;5026562;28;19913;-73
2023/05/28 11:43:43;;;;;;;;;;;;;;;;;;5027863;28;19969;-71
2023/05/28 11:46:10;;;;;;;;;;;;;;;;;;5006956;28;19945;-71
2023/05/28 11:48:36;;;;;;;;;;;;;;;;;;5010406;28;19968;-72
2023/05/28 11:51:02;;;;;;;;;;;;;;;;;;5025589;28;19932;-73
2023/05/28 11:53:28;;;;;;;;;;;;;;;;;;5027084;28;19913;-72
2023/05/28 11:55:54;;;;;;;;;;;;;;;;;;4993789;28;20394;-72
2023/05/28 11:58:21;;;;;;;;;;;;;;;;;;5025208;28;19925;-72
2023/05/28 12:00:47;;;;;;;;;;;;;;;;;;5014002;28;19917;-72
2023/05/28 12:03:13;;;;;;;;;;;;;;;;;;5026203;28;19959;-74
2023/05/28 12:05:39;;;;;;;;;;;;;;;;;;5009347;28;19919;-72
2023/05/28 12:08:05;;;;;;;;;;;;;;;;;;5009538;28;19952;-72
2023/05/28 12:10:31;;;;;;;;;;;;;;;;;;5024032;28;19917;-73
2023/05/28 12:12:57;;;;;;;;;;;;;;;;;;5008267;28;19924;-72
2023/05/28 12:15:23;;;;;;;;;;;;;;;;;;5027160;28;19913;-72
2023/05/28 12:17:49;;;;;;;;;;;;;;;;;;5003231;28;20031;-72
2023/05/28 12:20:15;;;;;;;;;;;;;;;;;;5027133;28;20011;-74
2023/05/28 12:22:41;;;;;;;;;;;;;;;;;;5027235;28;20464;-73
2023/05/28 12:25:07;;;;;;;;;;;;;;;;;;5026102;28;19914;-72
2023/05/28 12:27:33;;;;;;;;;;;;;;;;;;5026268;28;20024;-71
2023/05/28 12:30:00;;;;;;;;;;;;;;;;;;4993442;28;20309;-72
2023/05/28 12:32:25;;;;;;;;;;;;;;;;;;5023797;28;20339;-72
2023/05/28 12:34:53;;;;;;;;;;;;;;;;;;5025043;28;19996;-72
2023/05/28 12:37:19;;;;;;;;;;;;;;;;;;5024844;28;19940;-73
2023/05/28 12:39:45;;;;;;;;;;;;;;;;;;5026683;28;19955;-73
2023/05/28 12:42:11;;;;;;;;;;;;;;;;;;5027111;28;19928;-74
2023/05/28 12:44:37;;;;;;;;;;;;;;;;;;5025410;28;20004;-73
2023/05/28 12:47:03;;;;;;;;;;;;;;;;;;5025132;28;19913;-71
2023/05/28 12:49:29;;;;;;;;;;;;;;;;;;5025843;28;20382;-72
2023/05/28 12:51:55;;;;;;;;;;;;;;;;;;5026392;28;19925;-72
2023/05/28 12:54:21;;;;;;;;;;;;;;;;;;5025652;28;19917;-73
2023/05/28 12:56:47;;;;;;;;;;;;;;;;;;5010051;28;20295;-71
2023/05/28 12:59:13;;;;;;;;;;;;;;;;;;5026270;28;19913;-73
2023/05/28 13:01:39;;;;;;;;;;;;;;;;;;5005516;28;19913;-72
2023/05/28 13:04:05;;;;;;;;;;;;;;;;;;5009414;28;19925;-72
2023/05/28 13:06:32;;;;;;;;;;;;;;;;;;5025699;28;20440;-72
2023/05/28 13:08:59;;;;;;;;;;;;;;;;;;5008016;28;20554;-73
2023/05/28 13:11:25;;;;;;;;;;;;;;;;;;5004388;28;19917;-71
2023/05/28 13:13:51;;;;;;;;;;;;;;;;;;5009187;28;19913;-72
2023/05/28 13:16:20;;;;;;;;;;;;;;;;;;5023689;28;19921;-72
2023/05/28 13:18:46;;;;;;;;;;;;;;;;;;5013429;28;19913;-72
2023/05/28 13:21:13;;;;;;;;;;;;;;;;;;4997717;28;19922;-72
2023/05/28 13:23:39;;;;;;;;;;;;;;;;;;5028564;28;19913;-76
2023/05/28 13:26:05;;;;;;;;;;;;;;;;;;5016177;28;19917;-72
2023/05/28 13:28:31;;;;;;;;;;;;;;;;;;5011410;28;20067;-72
2023/05/28 13:30:57;;;;;;;;;;;;;;;;;;4994646;28;19925;-72
2023/05/28 13:33:23;;;;;;;;;;;;;;;;;;5009888;28;19958;-72
2023/05/28 13:35:49;;;;;;;;;;;;;;;;;;5018467;28;19961;-71
2023/05/28 13:38:16;;;;;;;;;;;;;;;;;;5043246;28;20197;-73
2023/05/28 13:40:43;;;;;;;;;;;;;;;;;;5015574;28;19913;-73
2023/05/28 13:43:09;;;;;;;;;;;;;;;;;;5052613;28;19912;-73
2023/05/28 13:45:35;;;;;;;;;;;;;;;;;;5052756;28;19912;-72
2023/05/28 13:48:02;;;;;;;;;;;;;;;;;;5031718;28;19913;-73
2023/05/28 13:50:28;;;;;;;;;;;;;;;;;;5052976;28;19917;-72
2023/05/28 13:52:54;;;;;;;;;;;;;;;;;;5040699;28;19913;-71
2023/05/28 13:55:20;;;;;;;;;;;;;;;;;;5006050;28;20300;-72
2023/05/28 13:57:46;;;;;;;;;;;;;;;;;;5034968;28;20310;-71
2023/05/28 14:00:13;;;;;;;;;;;;;;;;;;5049153;28;19913;-72
2023/05/28 14:02:39;;;;;;;;;;;;;;;;;;5013080;28;19920;-72
2023/05/28 14:05:05;;;;;;;;;;;;;;;;;;5024729;28;19913;-73
2023/05/28 14:07:31;;;;;;;;;;;;;;;;;;5051285;28;20051;-72
2023/05/28 14:09:57;;;;;;;;;;;;;;;;;;5034300;28;19917;-72
2023/05/28 14:12:24;;;;;;;;;;;;;;;;;;5052303;28;19909;-72
2023/05/28 14:14:50;;;;;;;;;;;;;;;;;;5032220;28;19916;-72
2023/05/28 14:17:16;;;;;;;;;;;;;;;;;;5051542;28;19995;-72
2023/05/28 14:19:42;;;;;;;;;;;;;;;;;;5016803;28;20027;-73
2023/05/28 14:22:08;;;;;;;;;;;;;;;;;;5033091;28;20012;-72
2023/05/28 14:24:34;;;;;;;;;;;;;;;;;;5049693;28;19912;-71
2023/05/28 14:27:01;;;;;;;;;;;;;;;;;;5032743;28;19917;-72
2023/05/28 14:29:27;;;;;;;;;;;;;;;;;;5050680;28;19909;-72
2023/05/28 14:31:53;;;;;;;;;;;;;;;;;;5051177;28;20384;-72
2023/05/28 14:34:19;;;;;;;;;;;;;;;;;;5051330;28;19917;-72
2023/05/28 14:36:45;;;;;;;;;;;;;;;;;;5047565;28;19939;-73
2023/05/28 14:39:11;;;;;;;;;;;;;;;;;;5050982;28;19919;-72
2023/05/28 14:41:37;;;;;;;;;;;;;;;;;;5050571;28;20423;-73
2023/05/28 14:44:03;;;;;;;;;;;;;;;;;;5049903;28;19921;-72
2023/05/28 14:46:29;;;;;;;;;;;;;;;;;;5047450;28;19945;-72
2023/05/28 14:48:55;;;;;;;;;;;;;;;;;;5032882;28;19968;-71
2023/05/28 14:51:22;;;;;;;;;;;;;;;;;;5050608;28;19916;-72
2023/05/28 14:53:48;;;;;;;;;;;;;;;;;;5012882;28;20341;-72
2023/05/28 14:56:14;;;;;;;;;;;;;;;;;;5019740;28;19913;-72
2023/05/28 14:58:40;;;;;;;;;;;;;;;;;;5048880;28;19962;-72
2023/05/28 15:01:06;;;;;;;;;;;;;;;;;;5033007;28;19913;-72
2023/05/28 15:03:32;;;;;;;;;;;;;;;;;;5010624;28;20416;-72
2023/05/28 15:05:58;;;;;;;;;;;;;;;;;;5029881;28;19917;-73
2023/05/28 15:08:24;;;;;;;;;;;;;;;;;;5050420;28;20295;-72
2023/05/28 15:10:51;;;;;;;;;;;;;;;;;;5032260;28;19942;-72
2023/05/28 15:13:17;;;;;;;;;;;;;;;;;;5050176;28;20391;-72
2023/05/28 15:15:43;;;;;;;;;;;;;;;;;;5048272;28;20152;-73
2023/05/28 15:18:09;;;;;;;;;;;;;;;;;;5015877;28;19921;-73
2023/05/28 15:20:35;;;;;;;;;;;;;;;;;;5032523;28;20008;-72
2023/05/28 15:23:01;;;;;;;;;;;;;;;;;;5032045;28;20352;-72
2023/05/28 15:25:27;;;;;;;;;;;;;;;;;;5031875;28;19922;-72
2023/05/28 15:27:53;;;;;;;;;;;;;;;;;;5010575;28;19924;-71
2023/05/28 15:30:19;;;;;;;;;;;;;;;;;;5029872;28;19917;-72
2023/05/28 15:32:45;;;;;;;;;;;;;;;;;;5031138;28;19920;-72
2023/05/28 15:35:11;;;;;;;;;;;;;;;;;;5031086;28;19914;-72
2023/05/28 15:37:37;;;;;;;;;;;;;;;;;;5030105;28;20313;-72
2023/05/28 15:40:03;;;;;;;;;;;;;;;;;;5012313;28;19913;-71
2023/05/28 15:42:29;;;;;;;;;;;;;;;;;;5026305;28;20129;-71
2023/05/28 15:44:55;;;;;;;;;;;;;;;;;;5050799;28;19919;-72
2023/05/28 15:47:21;;;;;;;;;;;;;;;;;;5050995;28;19994;-71
2023/05/28 15:49:47;;;;;;;;;;;;;;;;;;5051120;28;19964;-71
2023/05/28 15:52:13;;;;;;;;;;;;;;;;;;5040714;28;19975;-71
2023/05/28 15:54:39;;;;;;;;;;;;;;;;;;5029680;28;19991;-72
2023/05/28 15:57:06;;;;;;;;;;;;;;;;;;5011490;28;20007;-72
2023/05/28 15:59:32;;;;;;;;;;;;;;;;;;5010896;28;19931;-72
2023/05/28 16:01:58;;;;;;;;;;;;;;;;;;5040075;28;19913;-72
2023/05/28 16:04:24;;;;;;;;;;;;;;;;;;5049514;28;19966;-72
2023/05/28 16:06:50;;;;;;;;;;;;;;;;;;5032395;28;19945;-72
2023/05/28 16:09:17;;;;;;;;;;;;;;;;;;5015534;28;19913;-72
2023/05/28 16:11:44;;;;;;;;;;;;;;;;;;5044338;28;19952;-71
2023/05/28 16:14:10;;;;;;;;;;;;;;;;;;5032032;28;20014;-73
2023/05/28 16:16:36;;;;;;;;;;;;;;;;;;5030819;28;19924;-72
2023/05/28 16:19:02;;;;;;;;;;;;;;;;;;5031869;28;20289;-71
2023/05/28 16:21:28;;;;;;;;;;;;;;;;;;5045786;28;19913;-72
2023/05/28 16:23:54;;;;;;;;;;;;;;;;;;5030694;28;19944;-72
2023/05/28 16:26:21;;;;;;;;;;;;;;;;;;5032035;28;20193;-72
2023/05/28 16:28:47;;;;;;;;;;;;;;;;;;5049765;28;20408;-72
2023/05/28 16:31:16;;;;;;;;;;;;;;;;;;5050430;28;19920;-73
2023/05/28 16:33:42;;;;;;;;;;;;;;;;;;5048384;28;19917;-72
2023/05/28 16:36:08;;;;;;;;;;;;;;;;;;5049667;28;20223;-73
2023/05/28 16:38:33;;;;;;;;;;;;;;;;;;5031021;28;20126;-73
2023/05/28 16:41:00;;;;;;;;;;;;;;;;;;5049259;28;19912;-73
2023/05/28 16:43:26;;;;;;;;;;;;;;;;;;5031146;28;19912;-73
2023/05/28 16:45:53;;;;;;;;;;;;;;;;;;5029198;28;20318;-73